Time;durP1;ratioP1;P1;durP2;ratioP2;P2;SDS_P1;SDS_P2;PMS_P1;PMS_P2;Temp;Humidity;BMP_temperature;BMP_pressure;BME280_temperature;BME280_humidity;BME280_pressure;Samples;Min_cycle;Max_cycle;Signal;HPM_P1;HPM_P2
2022/12/22 03:26:26;;;;;;;0.60;0.60;;;8.80;99.90;;;;;;5012317;28;20251;-81
2022/12/22 03:28:51;;;;;;;0.60;0.60;;;8.80;99.90;;;;;;4996380;28;20200;-81
2022/12/22 03:31:17;;;;;;;0.80;0.80;;;8.80;99.90;;;;;;4998257;28;20235;-81
2022/12/22 03:33:42;;;;;;;0.83;0.70;;;8.80;99.90;;;;;;5015256;28;20180;-81
2022/12/22 03:36:09;;;;;;;3.13;0.90;;;8.70;99.90;;;;;;5015401;28;20266;-80
2022/12/22 03:38:34;;;;;;;0.90;0.90;;;8.60;99.90;;;;;;5015270;28;20192;-81
2022/12/22 03:41:00;;;;;;;0.70;0.70;;;8.60;99.90;;;;;;5015711;28;20229;-81
2022/12/22 03:46:31;;;;;;;0.70;0.70;;;8.70;99.90;;;;;;5015683;28;20201;-81
2022/12/22 03:49:10;;;;;;;0.67;0.67;;;8.70;99.90;;;;;;5025756;28;20211;-81
2022/12/22 03:51:44;;;;;;;0.70;0.70;;;8.60;99.90;;;;;;5030101;28;20259;-81
2022/12/22 03:54:12;;;;;;;0.80;0.80;;;8.60;99.90;;;;;;5017000;28;20238;-82
2022/12/22 03:56:38;;;;;;;1.13;0.90;;;8.60;99.90;;;;;;5010969;28;20209;-81
2022/12/22 03:59:04;;;;;;;1.07;0.97;;;8.60;99.90;;;;;;5026569;28;20618;-81
2022/12/22 04:01:32;;;;;;;1.00;0.90;;;8.50;99.90;;;;;;5034840;28;20673;-81
2022/12/22 04:03:58;;;;;;;0.80;0.80;;;8.60;99.90;;;;;;5034173;28;20173;-81
2022/12/22 04:06:23;;;;;;;0.80;0.80;;;8.60;99.90;;;;;;5034597;28;20587;-81
2022/12/22 04:08:49;;;;;;;1.07;0.90;;;8.60;99.90;;;;;;5034734;28;20249;-81
2022/12/22 04:14:00;;;;;;;1.10;0.70;;;8.60;99.90;;;;;;5034400;28;20688;-81
2022/12/22 04:16:26;;;;;;;0.70;0.70;;;8.60;99.90;;;;;;5016631;28;20208;-81
2022/12/22 04:18:51;;;;;;;0.70;0.70;;;8.60;99.90;;;;;;5034494;28;20637;-81
2022/12/22 04:21:17;;;;;;;0.77;0.70;;;8.60;99.90;;;;;;5034583;28;20646;-81
2022/12/22 04:23:43;;;;;;;0.70;0.70;;;8.60;99.90;;;;;;5015974;28;20176;-81
2022/12/22 04:26:08;;;;;;;0.60;0.50;;;8.60;99.90;;;;;;5016663;28;20647;-81
2022/12/22 04:28:34;;;;;;;0.63;0.63;;;8.60;99.90;;;;;;5016384;28;20638;-81
2022/12/22 04:31:00;;;;;;;0.60;0.60;;;8.60;99.90;;;;;;5034165;28;20174;-81
2022/12/22 04:33:25;;;;;;;0.63;0.60;;;8.60;99.90;;;;;;5015912;28;20176;-81
2022/12/22 04:35:51;;;;;;;0.77;0.63;;;8.60;99.90;;;;;;5016375;28;20574;-81
2022/12/22 04:38:16;;;;;;;0.70;0.70;;;8.60;99.90;;;;;;5016284;28;20225;-81
2022/12/22 04:40:42;;;;;;;0.80;0.60;;;8.70;99.90;;;;;;5015354;28;20182;-81
2022/12/22 04:43:08;;;;;;;0.60;0.60;;;8.70;99.90;;;;;;5015613;28;20633;-81
2022/12/22 04:45:33;;;;;;;0.60;0.60;;;8.70;99.90;;;;;;5016101;28;20180;-81
2022/12/22 04:47:59;;;;;;;1.00;0.80;;;8.80;99.90;;;;;;5015898;28;20184;-81
2022/12/22 04:50:24;;;;;;;0.97;0.90;;;8.80;99.90;;;;;;5016046;28;20176;-81
2022/12/22 04:52:50;;;;;;;1.20;1.10;;;8.80;99.90;;;;;;5032976;28;20251;-81
2022/12/22 04:55:16;;;;;;;0.97;0.90;;;8.80;99.90;;;;;;5016436;28;20608;-81
2022/12/22 04:57:41;;;;;;;1.23;1.13;;;8.80;99.90;;;;;;5016107;28;20302;-81
2022/12/22 05:00:08;;;;;;;1.47;1.07;;;8.80;99.90;;;;;;5033760;28;20254;-81
2022/12/22 05:02:34;;;;;;;1.50;1.20;;;8.90;99.90;;;;;;5015147;28;20249;-81
2022/12/22 05:04:59;;;;;;;1.27;1.10;;;9.00;99.90;;;;;;5015980;28;20267;-79
2022/12/22 05:07:25;;;;;;;1.90;1.10;;;9.00;99.90;;;;;;5033521;28;20187;-79
2022/12/22 05:09:50;;;;;;;2.00;1.20;;;9.10;99.90;;;;;;5016277;28;20201;-79
2022/12/22 05:15:00;;;;;;;2.03;1.10;;;9.10;99.90;;;;;;5033894;28;20207;-80
2022/12/22 05:17:26;;;;;;;1.53;1.17;;;9.10;99.90;;;;;;5016306;28;20681;-79
2022/12/22 05:19:51;;;;;;;1.43;1.20;;;9.10;99.90;;;;;;5033550;28;20248;-79
2022/12/22 05:22:17;;;;;;;2.00;1.10;;;9.10;99.90;;;;;;5033031;28;20189;-78
2022/12/22 05:24:42;;;;;;;2.30;1.20;;;9.10;99.90;;;;;;5015806;28;20173;-79
2022/12/22 05:27:10;;;;;;;1.53;1.10;;;9.20;99.90;;;;;;5034190;28;20205;-82
2022/12/22 05:29:35;;;;;;;1.83;1.10;;;9.20;99.90;;;;;;5033060;28;20202;-82
2022/12/22 05:32:01;;;;;;;1.63;1.30;;;9.20;99.90;;;;;;5015654;28;20245;-81
2022/12/22 05:34:27;;;;;;;1.50;1.23;;;9.30;99.90;;;;;;5014795;28;20185;-81
2022/12/22 05:36:52;;;;;;;2.93;1.40;;;9.30;99.90;;;;;;5033003;28;20275;-80
2022/12/22 05:39:18;;;;;;;1.90;1.30;;;9.30;99.90;;;;;;5032727;28;20221;-84
2022/12/22 05:41:43;;;;;;;1.50;1.30;;;9.30;99.90;;;;;;5033379;28;20192;-84
2022/12/22 05:44:09;;;;;;;1.37;1.20;;;9.30;99.90;;;;;;5014648;28;20640;-84
2022/12/22 05:46:34;;;;;;;1.53;1.07;;;9.30;99.90;;;;;;5032795;28;20272;-84
2022/12/22 05:49:00;;;;;;;2.03;1.37;;;9.30;99.90;;;;;;5015501;28;20197;-85
2022/12/22 05:51:26;;;;;;;3.20;1.10;;;9.20;99.90;;;;;;5032712;28;20226;-84
2022/12/22 05:53:51;;;;;;;1.30;1.20;;;9.30;99.90;;;;;;5015063;28;20236;-85
2022/12/22 05:56:17;;;;;;;1.90;1.20;;;9.30;99.90;;;;;;5032715;28;20181;-85
2022/12/22 05:58:42;;;;;;;2.03;1.10;;;9.30;99.90;;;;;;5015007;28;20194;-85
2022/12/22 06:01:08;;;;;;;3.20;1.40;;;9.30;99.90;;;;;;5015015;28;20714;-84
2022/12/22 06:03:34;;;;;;;2.07;1.20;;;9.30;99.90;;;;;;5014940;28;20176;-85
2022/12/22 06:05:59;;;;;;;1.80;1.30;;;9.30;99.90;;;;;;5014720;28;20258;-85
2022/12/22 06:08:25;;;;;;;4.77;1.60;;;9.30;99.90;;;;;;5014846;28;20221;-85
2022/12/22 06:10:54;;;;;;;3.67;1.70;;;9.30;99.90;;;;;;5032767;28;20212;-81
2022/12/22 06:13:19;;;;;;;1.67;1.43;;;9.30;99.90;;;;;;5031855;28;20166;-85
2022/12/22 06:15:46;;;;;;;2.03;1.50;;;9.40;99.90;;;;;;5032741;28;20272;-86
2022/12/22 06:18:12;;;;;;;3.80;1.20;;;9.30;99.90;;;;;;5014371;28;20683;-84
2022/12/22 06:20:37;;;;;;;1.77;1.27;;;9.40;99.90;;;;;;5014894;28;20166;-85
2022/12/22 06:23:03;;;;;;;2.37;1.27;;;9.40;99.90;;;;;;5014762;28;20256;-84
2022/12/22 06:25:28;;;;;;;3.33;1.40;;;9.50;99.90;;;;;;5032201;28;20185;-85
2022/12/22 06:27:54;;;;;;;3.07;1.30;;;9.40;99.90;;;;;;5014260;28;20274;-85
2022/12/22 06:30:19;;;;;;;1.60;1.30;;;9.40;99.90;;;;;;5031928;28;20187;-85
2022/12/22 06:32:45;;;;;;;1.77;1.10;;;9.40;99.90;;;;;;5031771;28;20246;-85
2022/12/22 06:35:11;;;;;;;3.53;1.20;;;9.40;99.90;;;;;;5014926;28;20176;-85
2022/12/22 06:37:39;;;;;;;1.10;1.00;;;9.40;99.90;;;;;;5014705;28;20211;-85
2022/12/22 06:40:06;;;;;;;1.77;1.30;;;9.40;99.90;;;;;;5032223;28;20209;-85
2022/12/22 06:45:15;;;;;;;3.27;1.20;;;9.40;99.90;;;;;;5032387;28;20177;-85
2022/12/22 06:47:41;;;;;;;1.90;1.20;;;9.40;99.90;;;;;;5014389;28;20178;-85
2022/12/22 06:50:07;;;;;;;2.13;1.30;;;9.40;99.90;;;;;;5014393;28;20189;-84
2022/12/22 06:52:33;;;;;;;2.83;1.33;;;9.40;99.90;;;;;;5013879;28;20266;-82
2022/12/22 06:54:58;;;;;;;1.80;1.20;;;9.40;99.90;;;;;;5032169;28;20225;-84
2022/12/22 06:57:24;;;;;;;2.43;1.50;;;9.40;99.90;;;;;;5014425;28;20202;-84
2022/12/22 06:59:50;;;;;;;1.10;1.00;;;9.40;99.90;;;;;;5014459;28;20197;-83
2022/12/22 07:02:15;;;;;;;1.80;1.60;;;9.50;99.90;;;;;;5013777;28;20174;-81
2022/12/22 07:04:41;;;;;;;1.67;1.20;;;9.50;99.90;;;;;;5017578;28;20167;-83
2022/12/22 07:07:06;;;;;;;2.97;2.10;;;9.50;99.90;;;;;;5035703;28;20215;-86
2022/12/22 07:09:32;;;;;;;2.07;1.70;;;9.50;99.90;;;;;;5017679;28;20221;-83
2022/12/22 07:12:00;;;;;;;2.60;1.63;;;9.50;99.90;;;;;;5017801;28;20230;-86
2022/12/22 07:14:26;;;;;;;7.63;3.97;;;9.50;99.90;;;;;;5016973;28;20189;-86
2022/12/22 07:16:52;;;;;;;4.63;2.87;;;9.60;99.90;;;;;;5017717;28;20232;-87
2022/12/22 07:19:17;;;;;;;4.10;2.43;;;9.50;99.90;;;;;;5046037;23;20236;-89
2022/12/22 07:21:43;;;;;;;1.70;1.60;;;9.50;99.90;;;;;;5034080;28;20174;-89
2022/12/22 07:24:09;;;;;;;1.40;1.20;;;9.50;99.90;;;;;;5034591;28;20164;-89
2022/12/22 07:26:34;;;;;;;2.30;1.10;;;9.50;99.90;;;;;;5034902;28;20185;-88
2022/12/22 07:29:00;;;;;;;1.80;1.27;;;9.50;99.90;;;;;;5035032;28;20201;-88
2022/12/22 07:31:25;;;;;;;1.50;1.23;;;9.50;99.90;;;;;;5035156;28;20177;-89
2022/12/22 07:33:51;;;;;;;2.47;1.53;;;9.50;99.90;;;;;;5033413;28;20259;-89
2022/12/22 07:36:19;;;;;;;2.27;1.60;;;9.40;99.90;;;;;;5034844;28;20184;-90
2022/12/22 07:38:47;;;;;;;2.40;1.77;;;9.40;99.90;;;;;;5033466;28;20198;-89
2022/12/22 07:43:59;;;;;;;2.70;2.10;;;9.40;99.90;;;;;;5047992;28;20254;-88
2022/12/22 07:46:27;;;;;;;1.77;1.53;;;9.40;99.90;;;;;;5040988;28;20190;-87
2022/12/22 07:51:39;;;;;;;5.80;2.90;;;9.40;99.90;;;;;;5035199;28;20233;-86
2022/12/22 07:54:06;;;;;;;1.50;1.40;;;9.40;99.90;;;;;;5034307;28;20204;-87
2022/12/22 07:56:32;;;;;;;3.80;2.20;;;9.40;99.90;;;;;;5033113;28;20205;-87
2022/12/22 07:58:58;;;;;;;3.90;2.17;;;9.40;99.90;;;;;;5033204;28;20236;-87
2022/12/22 08:01:23;;;;;;;2.20;1.37;;;9.40;99.90;;;;;;5033215;28;20180;-87
2022/12/22 08:03:49;;;;;;;2.07;1.50;;;9.50;99.90;;;;;;5032553;28;20660;-87
2022/12/22 08:06:15;;;;;;;3.03;1.80;;;9.50;99.90;;;;;;5034412;28;20558;-87
2022/12/22 08:08:40;;;;;;;2.80;1.40;;;9.50;99.90;;;;;;5033193;28;20280;-89
2022/12/22 08:11:06;;;;;;;4.13;1.80;;;9.50;99.90;;;;;;5034201;28;20536;-87
2022/12/22 08:13:33;;;;;;;3.77;2.17;;;9.50;99.90;;;;;;5032489;28;20204;-87
2022/12/22 08:16:06;;;;;;;2.83;2.10;;;9.50;99.90;;;;;;5031819;28;20187;-90
2022/12/22 08:18:33;;;;;;;4.23;2.10;;;9.50;99.90;;;;;;5030217;28;20782;-87
2022/12/22 08:20:59;;;;;;;3.47;1.80;;;9.50;99.90;;;;;;5014535;28;20696;-87
2022/12/22 08:23:25;;;;;;;4.07;1.70;;;9.50;99.90;;;;;;5013534;28;20181;-89
2022/12/22 08:26:06;;;;;;;2.03;1.30;;;9.50;99.90;;;;;;4996556;28;20175;-87
2022/12/22 08:28:35;;;;;;;2.27;1.43;;;9.50;99.90;;;;;;4996637;28;20179;-87
2022/12/22 08:31:01;;;;;;;3.60;1.70;;;9.50;99.90;;;;;;4996465;28;20644;-86
2022/12/22 08:33:27;;;;;;;4.33;1.60;;;9.50;99.90;;;;;;5013665;28;20178;-87
2022/12/22 08:35:55;;;;;;;4.37;1.40;;;9.60;99.90;;;;;;4996453;28;20181;-87
2022/12/22 08:38:20;;;;;;;2.00;1.30;;;9.70;99.90;;;;;;5013824;28;20205;-87
2022/12/22 08:40:46;;;;;;;3.07;1.13;;;9.70;99.90;;;;;;5013874;28;20265;-87
2022/12/22 08:43:13;;;;;;;2.47;1.30;;;9.80;99.90;;;;;;4995952;28;20200;-86
2022/12/22 08:45:41;;;;;;;3.00;1.30;;;9.70;99.90;;;;;;4996146;28;20193;-87
2022/12/22 08:48:08;;;;;;;1.53;1.10;;;9.70;99.90;;;;;;5005663;28;20254;-87
2022/12/22 08:50:33;;;;;;;2.70;1.33;;;9.70;99.90;;;;;;4996188;28;20691;-87
2022/12/22 08:53:06;;;;;;;1.77;1.23;;;9.70;99.90;;;;;;4995909;28;20265;-87
2022/12/22 08:55:32;;;;;;;1.27;1.00;;;9.70;99.90;;;;;;4995959;28;20228;-88
2022/12/22 08:57:58;;;;;;;1.33;1.13;;;9.70;99.90;;;;;;4996223;28;20199;-87
2022/12/22 09:00:24;;;;;;;2.43;1.10;;;9.70;99.90;;;;;;4996120;28;20230;-87
2022/12/22 09:02:50;;;;;;;2.03;1.07;;;9.70;99.90;;;;;;4995784;28;20228;-87
2022/12/22 09:05:16;;;;;;;2.20;1.20;;;9.70;99.90;;;;;;4995988;28;20178;-87
2022/12/22 09:07:41;;;;;;;1.97;1.20;;;9.70;99.90;;;;;;4995933;28;20181;-87
2022/12/22 09:10:08;;;;;;;3.07;1.50;;;9.70;99.90;;;;;;5013234;28;20210;-88
2022/12/22 09:12:34;;;;;;;2.83;1.40;;;9.70;99.90;;;;;;4995112;28;20277;-87
2022/12/22 09:15:00;;;;;;;1.97;1.27;;;9.70;99.90;;;;;;5013577;28;20257;-87
2022/12/22 09:17:26;;;;;;;2.70;1.30;;;9.70;99.90;;;;;;5013340;28;20297;-87
2022/12/22 09:19:51;;;;;;;1.73;1.30;;;9.70;99.90;;;;;;5013217;28;20318;-87
2022/12/22 09:22:17;;;;;;;3.10;1.20;;;9.80;99.90;;;;;;4995418;28;20261;-90
2022/12/22 09:24:43;;;;;;;3.23;1.17;;;9.80;99.90;;;;;;4995914;28;20175;-87
2022/12/22 09:27:08;;;;;;;1.97;1.10;;;9.80;99.90;;;;;;4995106;28;20186;-87
2022/12/22 09:29:39;;;;;;;2.50;1.17;;;9.80;99.90;;;;;;4995604;28;20673;-87
2022/12/22 09:32:05;;;;;;;1.87;1.20;;;9.80;99.90;;;;;;4995847;28;20208;-87
2022/12/22 09:34:30;;;;;;;1.47;1.10;;;9.80;99.90;;;;;;4994891;28;20262;-87
2022/12/22 09:36:56;;;;;;;0.97;0.83;;;9.70;99.90;;;;;;5013309;28;20292;-88
2022/12/22 09:39:23;;;;;;;1.20;1.00;;;9.80;99.90;;;;;;4995269;28;20341;-87
2022/12/22 09:41:51;;;;;;;1.37;0.93;;;9.70;99.90;;;;;;5012858;28;20233;-86
2022/12/22 09:44:28;;;;;;;1.30;1.00;;;9.70;99.90;;;;;;4994688;28;20182;-87
2022/12/22 09:46:57;;;;;;;1.50;1.00;;;9.70;99.90;;;;;;4995291;28;20177;-87
2022/12/22 09:49:23;;;;;;;1.23;1.00;;;9.70;99.90;;;;;;4995217;28;20202;-87
2022/12/22 09:51:52;;;;;;;1.33;0.87;;;9.70;99.90;;;;;;4987050;28;20554;-88
2022/12/22 09:54:19;;;;;;;1.40;1.20;;;9.70;99.90;;;;;;4994418;28;20640;-87
2022/12/22 09:56:44;;;;;;;2.10;1.40;;;9.70;99.90;;;;;;4995346;28;20666;-87
2022/12/22 09:59:20;;;;;;;1.80;1.20;;;9.70;99.90;;;;;;4995307;28;20237;-87
2022/12/22 10:02:02;;;;;;;1.40;1.10;;;9.60;99.90;;;;;;4994969;28;20182;-87
2022/12/22 10:04:59;;;;;;;1.77;1.10;;;9.60;99.90;;;;;;4994606;28;20179;-86
2022/12/22 10:07:32;;;;;;;1.40;1.10;;;9.70;99.90;;;;;;4995288;28;20170;-87
2022/12/22 10:10:27;;;;;;;1.40;1.00;;;9.70;99.90;;;;;;4994731;28;20218;-89
2022/12/22 10:12:58;;;;;;;3.17;1.30;;;9.60;99.90;;;;;;4992122;28;20179;-87
2022/12/22 10:15:25;;;;;;;2.23;1.30;;;9.60;99.90;;;;;;4995321;28;20225;-87
2022/12/22 10:17:53;;;;;;;2.83;1.20;;;9.60;99.90;;;;;;4994871;28;20202;-87
2022/12/22 10:20:24;;;;;;;2.00;1.50;;;9.60;99.90;;;;;;4994683;28;20214;-87
2022/12/22 10:23:05;;;;;;;2.40;1.20;;;9.50;99.90;;;;;;5012080;28;20185;-87
2022/12/22 10:25:33;;;;;;;2.17;1.23;;;9.50;99.90;;;;;;5012275;28;20284;-87
2022/12/22 10:28:03;;;;;;;2.00;1.40;;;9.50;99.90;;;;;;5012586;28;20182;-87
2022/12/22 10:30:32;;;;;;;3.07;1.27;;;9.50;99.90;;;;;;4994721;28;20191;-88
2022/12/22 10:33:06;;;;;;;1.93;1.33;;;9.50;99.90;;;;;;4994256;28;20177;-87
2022/12/22 10:35:46;;;;;;;1.43;1.30;;;9.50;99.90;;;;;;5012359;28;20205;-89
2022/12/22 10:38:16;;;;;;;2.10;1.10;;;9.60;99.90;;;;;;4995917;28;20199;-87
2022/12/22 10:40:43;;;;;;;1.23;0.90;;;9.60;99.90;;;;;;5016301;28;20221;-87
2022/12/22 10:43:16;;;;;;;1.63;1.33;;;9.60;99.90;;;;;;5015748;28;20202;-88
2022/12/22 10:45:47;;;;;;;2.63;1.57;;;9.60;99.90;;;;;;5016096;28;20226;-87
2022/12/22 10:48:12;;;;;;;3.20;1.80;;;9.60;99.90;;;;;;5015895;28;20261;-88
2022/12/22 10:50:47;;;;;;;3.93;2.50;;;9.60;99.90;;;;;;4998425;28;20282;-87
2022/12/22 10:53:13;;;;;;;4.13;2.40;;;9.70;99.90;;;;;;4997966;28;20182;-88
2022/12/22 10:55:38;;;;;;;3.77;2.30;;;9.60;99.90;;;;;;5015993;28;20187;-87
2022/12/22 10:58:16;;;;;;;2.20;1.60;;;9.60;99.90;;;;;;5015706;28;20655;-87
2022/12/22 11:00:43;;;;;;;2.13;1.20;;;9.60;99.90;;;;;;5015654;28;20529;-88
2022/12/22 11:03:13;;;;;;;1.90;1.00;;;9.60;99.90;;;;;;4997566;28;20229;-85
2022/12/22 11:05:39;;;;;;;1.37;0.80;;;9.60;99.90;;;;;;4998276;28;20174;-88
2022/12/22 11:08:19;;;;;;;1.20;1.10;;;9.70;99.90;;;;;;5016100;28;20182;-87
2022/12/22 11:11:02;;;;;;;1.83;0.83;;;9.70;99.90;;;;;;5016201;28;20182;-88
2022/12/22 11:13:58;;;;;;;1.57;1.40;;;9.70;99.90;;;;;;5015373;28;20265;-89
2022/12/22 11:16:40;;;;;;;1.30;1.20;;;9.70;99.90;;;;;;4998095;28;20178;-90
2022/12/22 11:19:35;;;;;;;1.10;1.00;;;9.70;99.90;;;;;;4997722;28;20221;-87
2022/12/22 11:22:13;;;;;;;2.20;1.87;;;9.70;99.90;;;;;;4998967;28;20261;-89
2022/12/22 11:24:57;;;;;;;4.03;2.10;;;9.70;99.90;;;;;;5001476;28;20174;-86
2022/12/22 11:28:02;;;;;;;2.57;1.70;;;9.70;99.90;;;;;;5000769;28;20671;-85
2022/12/22 11:31:07;;;;;;;4.70;4.00;;;9.80;99.90;;;;;;4997913;28;20321;-86
2022/12/22 11:33:36;;;;;;;3.30;3.00;;;9.80;99.90;;;;;;5014632;28;20183;-86
2022/12/22 11:36:05;;;;;;;4.70;3.70;;;9.80;99.90;;;;;;4997482;28;20229;-86
2022/12/22 11:38:54;;;;;;;7.00;5.10;;;9.70;99.90;;;;;;4997273;28;20211;-85
2022/12/22 11:41:45;;;;;;;2.53;2.17;;;9.70;99.90;;;;;;5015072;28;20183;-86
2022/12/22 11:44:44;;;;;;;4.67;2.50;;;9.70;99.90;;;;;;4996815;28;20197;-85
2022/12/22 11:47:31;;;;;;;5.40;4.00;;;9.70;99.90;;;;;;5015151;28;20179;-87
2022/12/22 11:50:14;;;;;;;4.00;3.07;;;9.70;99.90;;;;;;5014555;28;20213;-86
2022/12/22 11:52:54;;;;;;;6.43;3.97;;;9.70;99.90;;;;;;5014335;28;20175;-88
2022/12/22 11:55:51;;;;;;;3.00;2.10;;;9.70;99.90;;;;;;5014787;28;20657;-87
2022/12/22 11:58:38;;;;;;;4.67;3.10;;;9.80;99.90;;;;;;4997481;28;20296;-85
2022/12/22 12:01:19;;;;;;;7.43;5.03;;;9.80;99.90;;;;;;4995483;28;20194;-87
2022/12/22 12:04:09;;;;;;;10.33;6.33;;;9.80;99.90;;;;;;5006110;28;20176;-86
2022/12/22 12:06:47;;;;;;;2.17;1.50;;;9.70;99.90;;;;;;5003028;28;20176;-86
2022/12/22 12:09:29;;;;;;;4.37;2.50;;;9.70;99.90;;;;;;4994795;28;20194;-86
2022/12/22 12:12:10;;;;;;;3.30;2.43;;;9.70;99.90;;;;;;4985452;28;20237;-84
2022/12/22 12:15:03;;;;;;;8.07;4.17;;;9.80;99.90;;;;;;4996325;28;20178;-86
2022/12/22 12:17:45;;;;;;;8.77;6.20;;;9.80;99.90;;;;;;4964429;28;20646;-86
2022/12/22 12:20:14;;;;;;;6.47;4.23;;;9.70;99.90;;;;;;4996592;28;20206;-86
2022/12/22 12:22:52;;;;;;;3.77;2.90;;;9.70;99.90;;;;;;5013984;28;20184;-86
2022/12/22 12:25:17;;;;;;;5.10;3.50;;;9.70;99.90;;;;;;4996769;28;20174;-86
2022/12/22 12:28:03;;;;;;;5.10;3.27;;;9.70;99.90;;;;;;4996749;28;20604;-86
2022/12/22 12:30:51;;;;;;;5.13;3.20;;;9.70;99.90;;;;;;4996606;28;20210;-86
2022/12/22 12:33:26;;;;;;;5.37;2.90;;;9.70;99.90;;;;;;4995553;28;20197;-85
2022/12/22 12:36:07;;;;;;;7.50;3.80;;;9.70;99.90;;;;;;4996729;28;20207;-86
2022/12/22 12:39:08;;;;;;;6.40;3.53;;;9.70;99.90;;;;;;4996442;28;20880;-85
2022/12/22 12:41:44;;;;;;;5.50;2.73;;;9.70;99.90;;;;;;5013911;28;20550;-85
2022/12/22 12:44:16;;;;;;;9.40;4.60;;;9.80;99.90;;;;;;4996066;28;20303;-85
2022/12/22 12:46:44;;;;;;;16.20;7.30;;;9.70;99.90;;;;;;5013796;28;20175;-85
2022/12/22 12:49:34;;;;;;;6.20;4.33;;;9.70;99.90;;;;;;4996023;28;20198;-86
2022/12/22 12:52:08;;;;;;;3.60;2.97;;;9.70;99.90;;;;;;5013612;28;20186;-87
2022/12/22 12:54:36;;;;;;;4.07;2.90;;;9.60;99.90;;;;;;4995815;28;20266;-86
2022/12/22 12:57:21;;;;;;;2.50;2.10;;;9.70;99.90;;;;;;5013709;28;20210;-86
2022/12/22 12:59:49;;;;;;;3.13;1.80;;;9.70;99.90;;;;;;4996150;28;20304;-86
2022/12/22 13:02:26;;;;;;;2.83;2.30;;;9.70;99.90;;;;;;4995028;28;20281;-87
2022/12/22 13:05:10;;;;;;;2.33;2.10;;;9.70;99.90;;;;;;4996078;28;20213;-86
2022/12/22 13:08:13;;;;;;;5.10;3.63;;;9.70;99.90;;;;;;5013537;28;20182;-87
2022/12/22 13:11:07;;;;;;;3.53;2.37;;;9.70;99.90;;;;;;4897655;29;20203;-87
2022/12/22 13:13:38;;;;;;;3.23;2.60;;;9.80;99.90;;;;;;4994059;28;20636;-87
2022/12/22 13:16:03;;;;;;;2.27;1.70;;;9.80;99.90;;;;;;5012508;28;20258;-87
2022/12/22 13:18:33;;;;;;;2.10;1.67;;;9.70;99.90;;;;;;4995176;28;20296;-87
2022/12/22 13:21:05;;;;;;;2.57;1.90;;;9.70;99.90;;;;;;4996695;28;20249;-87
2022/12/22 13:23:37;;;;;;;2.03;1.80;;;9.70;99.90;;;;;;4995144;28;20182;-87
2022/12/22 13:26:13;;;;;;;2.30;1.90;;;9.70;99.90;;;;;;4995479;28;20167;-87
2022/12/22 13:28:42;;;;;;;2.13;1.90;;;9.70;99.90;;;;;;4995289;28;20194;-87
2022/12/22 13:31:32;;;;;;;2.07;1.83;;;9.70;99.90;;;;;;4995464;28;20186;-86
2022/12/22 13:34:23;;;;;;;2.30;2.07;;;9.60;99.90;;;;;;5012454;28;20192;-87
2022/12/22 13:36:50;;;;;;;2.23;1.67;;;9.70;99.90;;;;;;5012762;28;20185;-87
2022/12/22 13:39:16;;;;;;;2.23;2.03;;;9.60;99.90;;;;;;5013006;28;20191;-89
2022/12/22 13:41:45;;;;;;;1.60;1.50;;;9.60;99.90;;;;;;5011871;28;20171;-88
2022/12/22 13:44:15;;;;;;;1.67;1.40;;;9.70;99.90;;;;;;4995315;28;20189;-89
2022/12/22 13:46:42;;;;;;;1.73;1.63;;;9.70;99.90;;;;;;4995838;28;20170;-89
2022/12/22 13:49:16;;;;;;;2.90;2.00;;;9.70;99.90;;;;;;4995444;28;20209;-89
2022/12/22 13:51:42;;;;;;;2.30;2.10;;;9.70;99.90;;;;;;4995547;28;20273;-89
2022/12/22 13:54:08;;;;;;;2.53;2.10;;;9.70;99.90;;;;;;5012740;28;20277;-89
2022/12/22 13:56:47;;;;;;;2.37;1.90;;;9.60;99.90;;;;;;4995682;28;20178;-89
2022/12/22 13:59:27;;;;;;;2.13;1.90;;;9.60;99.90;;;;;;4995687;28;20190;-89
2022/12/22 14:02:06;;;;;;;3.67;2.30;;;9.60;99.90;;;;;;4995691;28;20552;-89
2022/12/22 14:04:32;;;;;;;4.43;3.13;;;9.60;99.90;;;;;;4994869;28;20173;-89
2022/12/22 14:07:12;;;;;;;10.70;7.87;;;9.60;99.90;;;;;;5013105;28;20178;-90
2022/12/22 14:09:46;;;;;;;4.97;4.10;;;9.60;99.90;;;;;;5013120;28;20202;-89
2022/12/22 14:12:18;;;;;;;6.07;4.83;;;9.50;99.90;;;;;;4995164;28;20213;-90
2022/12/22 14:14:45;;;;;;;11.13;8.10;;;9.50;99.90;;;;;;5012762;28;20253;-90
2022/12/22 14:17:23;;;;;;;5.77;4.13;;;9.50;99.90;;;;;;4995348;28;20210;-90
2022/12/22 14:19:51;;;;;;;12.60;9.63;;;9.50;99.90;;;;;;4995003;28;20681;-89
2022/12/22 14:22:43;;;;;;;8.07;6.00;;;9.40;99.90;;;;;;5012438;28;20377;-90
2022/12/22 14:25:23;;;;;;;6.83;5.63;;;9.40;99.90;;;;;;4984740;28;20183;-89
2022/12/22 14:27:54;;;;;;;16.53;11.10;;;9.40;99.90;;;;;;4995513;28;20638;-89
2022/12/22 14:30:34;;;;;;;9.27;6.97;;;9.40;99.90;;;;;;4994968;28;20665;-90
2022/12/22 14:33:14;;;;;;;6.10;5.50;;;9.30;99.90;;;;;;4994843;28;20174;-90
2022/12/22 14:35:40;;;;;;;3.57;3.20;;;9.30;99.90;;;;;;5012590;28;20581;-91
2022/12/22 14:38:05;;;;;;;5.60;4.33;;;9.30;99.90;;;;;;4995305;28;20198;-89
2022/12/22 14:40:33;;;;;;;19.17;13.90;;;9.30;99.90;;;;;;4994423;28;20179;-89
2022/12/22 14:43:02;;;;;;;6.40;5.23;;;9.20;99.90;;;;;;5003717;28;20167;-88
2022/12/22 14:45:28;;;;;;;5.10;4.50;;;9.30;99.90;;;;;;5006485;28;20179;-89
2022/12/22 14:47:54;;;;;;;14.57;11.07;;;9.30;99.90;;;;;;4992606;28;20182;-89
2022/12/22 14:50:28;;;;;;;9.73;7.90;;;9.20;99.90;;;;;;4975108;28;20202;-89
2022/12/22 14:52:54;;;;;;;4.17;3.03;;;9.20;99.90;;;;;;4992299;28;20182;-89
2022/12/22 14:55:37;;;;;;;2.53;2.20;;;9.30;99.90;;;;;;4992511;28;20183;-90
2022/12/22 14:58:20;;;;;;;2.90;2.50;;;9.30;99.90;;;;;;4974978;28;20203;-89
2022/12/22 15:00:48;;;;;;;4.10;3.20;;;9.40;99.90;;;;;;4992153;28;20175;-87
2022/12/22 15:03:35;;;;;;;3.90;3.43;;;9.40;99.90;;;;;;4974653;28;20175;-86
2022/12/22 15:06:30;;;;;;;4.60;3.37;;;9.40;99.90;;;;;;4992304;28;20255;-86
2022/12/22 15:09:10;;;;;;;4.60;3.43;;;9.40;99.90;;;;;;4980536;28;20221;-86
2022/12/22 15:11:39;;;;;;;4.60;3.80;;;9.30;99.90;;;;;;5006345;28;20261;-87
2022/12/22 15:14:10;;;;;;;6.40;5.27;;;9.20;99.90;;;;;;5005356;28;20179;-86
2022/12/22 15:16:36;;;;;;;3.60;2.90;;;9.20;99.90;;;;;;4989419;28;20676;-87
2022/12/22 15:19:03;;;;;;;4.07;3.20;;;9.10;99.90;;;;;;4994013;28;20237;-86
2022/12/22 15:21:29;;;;;;;3.40;3.10;;;9.10;99.90;;;;;;4994012;28;20197;-86
2022/12/22 15:23:55;;;;;;;4.20;3.70;;;9.00;99.90;;;;;;5012039;28;20548;-86
2022/12/22 15:26:21;;;;;;;4.20;3.53;;;9.00;99.90;;;;;;4997546;28;20186;-87
2022/12/22 15:28:46;;;;;;;4.73;3.33;;;8.90;99.90;;;;;;5015280;28;20717;-85
2022/12/22 15:31:14;;;;;;;4.77;3.70;;;8.90;99.90;;;;;;5015152;28;20527;-85
2022/12/22 15:33:40;;;;;;;6.00;4.50;;;8.90;99.90;;;;;;4997257;28;20179;-85
2022/12/22 15:36:09;;;;;;;11.70;10.07;;;8.80;99.90;;;;;;4997964;28;20181;-85
2022/12/22 15:38:37;;;;;;;6.07;5.47;;;8.80;99.90;;;;;;5015227;28;20293;-87
2022/12/22 15:41:02;;;;;;;4.57;4.03;;;8.70;99.90;;;;;;4997779;28;20262;-86
2022/12/22 15:43:28;;;;;;;6.97;6.27;;;8.60;99.90;;;;;;4996926;28;20262;-86
2022/12/22 15:45:54;;;;;;;4.47;3.77;;;8.50;99.90;;;;;;5014970;28;20178;-86
2022/12/22 15:48:38;;;;;;;3.80;3.30;;;8.50;99.90;;;;;;5013102;28;20660;-86
2022/12/22 15:51:07;;;;;;;4.70;3.87;;;8.40;99.90;;;;;;5010456;28;20182;-86
2022/12/22 15:53:33;;;;;;;3.80;3.20;;;8.30;99.90;;;;;;4988597;28;20175;-86
2022/12/22 15:55:59;;;;;;;4.13;3.30;;;8.20;99.90;;;;;;4997196;28;20558;-86
2022/12/22 15:58:33;;;;;;;4.40;3.30;;;8.20;99.90;;;;;;5014607;28;20206;-86
2022/12/22 16:00:59;;;;;;;5.17;3.10;;;8.10;99.90;;;;;;4996987;28;20269;-86
2022/12/22 16:03:24;;;;;;;3.10;2.80;;;8.20;99.90;;;;;;5013941;28;20266;-87
2022/12/22 16:05:51;;;;;;;4.33;2.70;;;8.20;99.90;;;;;;4996362;28;20181;-87
2022/12/22 16:08:24;;;;;;;3.93;3.50;;;8.20;99.90;;;;;;5010274;28;20197;-87
2022/12/22 16:10:50;;;;;;;4.63;3.60;;;8.20;99.90;;;;;;5011626;28;20188;-88
2022/12/22 16:13:18;;;;;;;6.20;4.10;;;8.20;99.90;;;;;;4996374;28;20181;-86
2022/12/22 16:15:43;;;;;;;4.23;3.50;;;8.20;99.90;;;;;;4996654;28;20178;-86
2022/12/22 16:18:11;;;;;;;5.37;4.10;;;8.30;99.90;;;;;;4996950;28;20201;-86
2022/12/22 16:20:40;;;;;;;5.87;4.40;;;8.30;99.90;;;;;;4996552;28;20267;-88
2022/12/22 16:23:11;;;;;;;7.37;5.67;;;8.30;99.90;;;;;;4996270;28;20173;-86
2022/12/22 16:25:38;;;;;;;13.90;11.73;;;8.30;99.90;;;;;;4996771;28;20182;-89
2022/12/22 16:28:04;;;;;;;8.03;6.57;;;8.30;99.90;;;;;;4996810;28;20718;-89
2022/12/22 16:30:32;;;;;;;5.87;5.07;;;8.30;99.90;;;;;;4996379;28;20194;-89
2022/12/22 16:32:58;;;;;;;5.63;4.93;;;8.20;99.90;;;;;;5013730;28;20181;-86
2022/12/22 16:35:26;;;;;;;5.83;5.23;;;8.20;99.90;;;;;;4996096;28;20177;-91
2022/12/22 16:37:56;;;;;;;4.93;4.13;;;8.30;99.90;;;;;;5015422;28;20198;-87
2022/12/22 16:40:21;;;;;;;4.93;4.37;;;8.30;99.90;;;;;;4996658;28;20216;-85
2022/12/22 16:43:10;;;;;;;5.30;4.43;;;8.30;99.90;;;;;;4996105;28;20281;-85
2022/12/22 16:45:37;;;;;;;9.47;4.67;;;8.30;99.90;;;;;;4982617;28;20180;-85
2022/12/22 16:48:12;;;;;;;4.90;4.00;;;8.30;99.90;;;;;;4996386;28;20177;-85
2022/12/22 16:50:38;;;;;;;6.90;4.50;;;8.30;99.90;;;;;;5012693;28;20690;-85
2022/12/22 16:53:04;;;;;;;5.60;4.70;;;8.30;99.90;;;;;;4995041;28;20664;-85
2022/12/22 16:55:32;;;;;;;6.67;4.70;;;8.30;99.90;;;;;;4995346;28;20187;-85
2022/12/22 16:57:57;;;;;;;6.77;5.90;;;8.30;99.90;;;;;;4994953;28;20691;-85